createdAt,value
2023-04-08T00:02:11.329Z,100.00
2023-04-08T00:04:59.197Z,100.00
2023-04-08T00:07:46.963Z,100.00
2023-04-08T00:10:34.697Z,100.00
2023-04-08T00:13:22.536Z,100.00
2023-04-08T00:16:10.187Z,100.00
2023-04-08T00:18:57.928Z,100.00
2023-04-08T00:21:45.658Z,100.00
2023-04-08T00:24:33.468Z,100.00
2023-04-08T00:27:21.281Z,100.00
2023-04-08T00:30:09.903Z,100.00
2023-04-08T00:32:58.941Z,100.00
2023-04-08T00:35:46.858Z,100.00
2023-04-08T00:38:34.500Z,100.00
2023-04-08T00:41:22.121Z,100.00
2023-04-08T00:44:09.860Z,100.00
2023-04-08T00:46:57.776Z,100.00
2023-04-08T00:49:45.622Z,100.00
2023-04-08T00:52:34.431Z,100.00
2023-04-08T00:55:22.069Z,100.00
2023-04-08T00:58:09.935Z,100.00
2023-04-08T01:01:20.574Z,100.00
2023-04-08T01:04:21.373Z,100.00
2023-04-08T01:07:22.589Z,100.00
2023-04-08T01:10:18.139Z,100.00
2023-04-08T01:13:10.372Z,100.00
2023-04-08T01:15:58.228Z,100.00
2023-04-08T01:18:48.175Z,100.00
2023-04-08T01:21:38.372Z,100.00
2023-04-08T01:24:33.812Z,100.00
2023-04-08T01:27:21.964Z,100.00
2023-04-08T01:30:10.640Z,100.00
2023-04-08T01:33:02.126Z,100.00
2023-04-08T01:35:51.870Z,100.00
2023-04-08T01:38:40.278Z,100.00
2023-04-08T01:41:30.800Z,100.00
2023-04-08T01:44:19.399Z,100.00
2023-04-08T01:47:07.609Z,100.00
2023-04-08T01:49:56.488Z,100.00
2023-04-08T01:52:46.510Z,100.00
2023-04-08T01:55:36.049Z,100.00
2023-04-08T01:58:27.995Z,100.00
2023-04-08T02:01:20.566Z,100.00
2023-04-08T02:04:10.845Z,100.00
2023-04-08T02:06:59.114Z,100.00
2023-04-08T02:09:46.872Z,100.00
2023-04-08T02:12:35.000Z,100.00
2023-04-08T02:15:23.727Z,100.00
2023-04-08T02:18:20.509Z,100.00
2023-04-08T02:21:13.763Z,100.00
2023-04-08T02:24:05.540Z,100.00
2023-04-08T02:26:56.072Z,100.00
2023-04-08T02:29:46.525Z,100.00
2023-04-08T02:32:35.647Z,100.00
2023-04-08T02:35:24.786Z,100.00
2023-04-08T02:38:12.803Z,100.00
2023-04-08T02:41:00.626Z,100.00
2023-04-08T02:43:49.814Z,100.00
2023-04-08T02:46:37.792Z,100.00
2023-04-08T02:49:25.455Z,100.00
2023-04-08T02:52:13.182Z,100.00
2023-04-08T02:55:00.878Z,100.00
2023-04-08T02:57:49.370Z,100.00
2023-04-08T03:00:39.844Z,100.00
2023-04-08T03:03:31.625Z,100.00
2023-04-08T03:06:19.301Z,100.00
2023-04-08T03:09:07.437Z,100.00
2023-04-08T03:11:55.208Z,100.00
2023-04-08T03:14:43.019Z,100.00
2023-04-08T03:17:34.018Z,100.00
2023-04-08T03:20:21.932Z,100.00
2023-04-08T03:23:09.786Z,100.00
2023-04-08T03:25:57.496Z,100.00
2023-04-08T03:28:45.149Z,100.00
2023-04-08T03:31:33.600Z,100.00
2023-04-08T03:34:21.400Z,100.00
2023-04-08T03:37:09.122Z,100.00
2023-04-08T03:39:56.829Z,100.00
2023-04-08T03:42:44.558Z,100.00
2023-04-08T03:45:32.389Z,100.00
2023-04-08T03:48:20.194Z,100.00
2023-04-08T03:51:07.840Z,100.00
2023-04-08T03:53:55.630Z,100.00
2023-04-08T03:56:43.280Z,100.00
2023-04-08T03:59:31.120Z,100.00
2023-04-08T04:02:18.926Z,100.00
2023-04-08T04:05:07.243Z,100.00
2023-04-08T04:07:55.200Z,100.00
2023-04-08T04:10:42.983Z,100.00
2023-04-08T04:13:30.752Z,100.00
2023-04-08T04:16:18.707Z,100.00
2023-04-08T04:19:06.622Z,100.00
2023-04-08T04:21:55.206Z,100.00
2023-04-08T04:24:48.573Z,100.00
2023-04-08T04:27:41.019Z,100.00
2023-04-08T04:30:29.592Z,100.00
2023-04-08T04:33:17.495Z,100.00
2023-04-08T04:36:05.318Z,100.00
2023-04-08T04:38:53.703Z,100.00
2023-04-08T04:41:41.893Z,100.00
2023-04-08T04:44:30.302Z,100.00
2023-04-08T04:47:19.029Z,100.00
2023-04-08T04:50:07.492Z,100.00
2023-04-08T04:52:55.212Z,100.00
2023-04-08T04:55:42.944Z,100.00
2023-04-08T04:58:31.230Z,100.00
2023-04-08T05:01:21.734Z,100.00
2023-04-08T05:04:09.482Z,100.00
2023-04-08T05:07:00.119Z,100.00
2023-04-08T05:09:47.812Z,100.00
2023-04-08T05:12:35.952Z,100.00
2023-04-08T05:15:23.584Z,100.00
2023-04-08T05:18:11.598Z,100.00
2023-04-08T05:20:59.335Z,100.00
2023-04-08T05:23:47.128Z,100.00
2023-04-08T05:26:34.848Z,100.00
2023-04-08T05:29:22.606Z,100.00
2023-04-08T05:32:10.312Z,100.00
2023-04-08T05:34:58.039Z,100.00
2023-04-08T05:37:45.956Z,100.00
2023-04-08T05:40:33.809Z,100.00
2023-04-08T05:43:21.734Z,100.00
2023-04-08T05:46:10.848Z,100.00
2023-04-08T05:48:58.780Z,100.00
2023-04-08T05:51:46.798Z,100.00
2023-04-08T05:54:34.650Z,100.00
2023-04-08T05:57:22.593Z,100.00
2023-04-08T06:00:11.278Z,100.00
2023-04-08T06:03:01.031Z,100.00
2023-04-08T06:05:49.030Z,100.00
2023-04-08T06:08:37.055Z,100.00
2023-04-08T06:11:24.921Z,100.00
2023-04-08T06:14:13.048Z,100.00
2023-04-08T06:17:00.958Z,100.00
2023-04-08T06:19:48.856Z,100.00
2023-04-08T06:22:38.981Z,100.00
2023-04-08T06:25:26.815Z,100.00
2023-04-08T06:28:14.588Z,100.00
2023-04-08T06:31:02.422Z,100.00
2023-04-08T06:33:50.080Z,100.00
2023-04-08T06:36:38.079Z,100.00
2023-04-08T06:39:25.712Z,100.00
2023-04-08T06:42:13.548Z,100.00
2023-04-08T06:45:29.499Z,100.00
2023-04-08T06:48:17.341Z,100.00
2023-04-08T06:51:05.079Z,100.00
2023-04-08T06:53:52.828Z,100.00
2023-04-08T06:56:40.568Z,100.00
2023-04-08T06:59:28.394Z,100.00
2023-04-08T07:02:16.181Z,100.00
2023-04-08T07:05:04.334Z,100.00
2023-04-08T07:07:52.297Z,100.00
2023-04-08T07:10:40.272Z,100.00
2023-04-08T07:13:27.968Z,100.00
2023-04-08T07:16:15.949Z,100.00
2023-04-08T07:19:06.027Z,100.00
2023-04-08T07:21:53.660Z,100.00
2023-04-08T07:24:43.580Z,100.00
2023-04-08T07:27:31.370Z,100.00
2023-04-08T07:30:19.526Z,100.00
2023-04-08T07:33:07.471Z,100.00
2023-04-08T07:35:55.393Z,100.00
2023-04-08T07:38:43.278Z,100.00
2023-04-08T07:41:30.947Z,100.00
2023-04-08T07:44:20.227Z,100.00
2023-04-08T07:47:07.889Z,100.00
2023-04-08T07:49:55.693Z,100.00
2023-04-08T07:52:43.401Z,100.00
2023-04-08T07:55:34.921Z,100.00
2023-04-08T07:58:22.804Z,100.00
2023-04-08T08:01:19.095Z,100.00
2023-04-08T08:04:06.961Z,100.00
2023-04-08T08:06:54.922Z,100.00
2023-04-08T08:09:42.554Z,100.00
2023-04-08T08:12:30.310Z,100.00
2023-04-08T08:15:21.322Z,100.00
2023-04-08T08:18:08.989Z,100.00
2023-04-08T08:20:56.937Z,100.00
2023-04-08T08:23:44.772Z,100.00
2023-04-08T08:26:32.660Z,100.00
2023-04-08T08:29:20.528Z,100.00
2023-04-08T08:32:08.228Z,100.00
2023-04-08T08:34:55.884Z,100.00
2023-04-08T08:37:43.704Z,100.00
2023-04-08T08:40:31.675Z,100.00
2023-04-08T08:43:20.526Z,100.00
2023-04-08T08:46:14.335Z,100.00
2023-04-08T08:49:02.718Z,100.00
2023-04-08T08:51:51.639Z,100.00
2023-04-08T08:54:39.318Z,100.00
2023-04-08T08:57:27.545Z,100.00
2023-04-08T09:00:16.486Z,100.00
2023-04-08T09:03:29.787Z,100.00
2023-04-08T09:06:21.101Z,100.00
2023-04-08T09:09:12.407Z,100.00
2023-04-08T09:12:06.520Z,100.00
2023-04-08T09:15:14.424Z,100.00
2023-04-08T09:18:02.616Z,100.00
2023-04-08T09:20:54.193Z,100.00
2023-04-08T09:23:45.031Z,100.00
2023-04-08T09:26:32.998Z,99.86
2023-04-08T09:29:26.442Z,100.00
2023-04-08T09:32:14.708Z,99.50
2023-04-08T09:35:02.999Z,98.84
2023-04-08T09:37:51.992Z,96.25
2023-04-08T09:40:41.701Z,94.56
2023-04-08T09:43:29.880Z,89.82
2023-04-08T09:46:24.843Z,91.19
2023-04-08T09:49:34.792Z,92.19
2023-04-08T09:52:31.162Z,95.58
2023-04-08T09:55:23.251Z,90.32
2023-04-08T09:58:24.738Z,93.42
2023-04-08T10:01:16.651Z,95.43
2023-04-08T10:04:08.375Z,84.90
2023-04-08T10:07:03.799Z,87.76
2023-04-08T10:09:52.485Z,84.58
2023-04-08T10:12:40.723Z,88.15
2023-04-08T10:15:33.239Z,91.47
2023-04-08T10:18:22.160Z,86.14
2023-04-08T10:21:33.931Z,84.08
2023-04-08T10:24:26.027Z,85.30
2023-04-08T10:27:37.139Z,83.28
2023-04-08T10:30:27.944Z,81.25
2023-04-08T10:33:25.485Z,87.57
2023-04-08T10:36:15.572Z,83.09
2023-04-08T10:39:03.306Z,81.44
2023-04-08T10:41:52.039Z,79.87
2023-04-08T10:44:46.396Z,80.53
2023-04-08T10:47:34.140Z,78.04
2023-04-08T10:50:23.945Z,78.80
2023-04-08T10:53:12.039Z,81.12
2023-04-08T10:56:19.331Z,77.27
2023-04-08T10:59:08.361Z,81.14
2023-04-08T11:01:56.101Z,79.13
2023-04-08T11:04:44.936Z,77.88
2023-04-08T11:07:33.193Z,78.65
2023-04-08T11:10:21.373Z,80.10
2023-04-08T11:13:12.064Z,79.57
2023-04-08T11:16:01.265Z,78.30
2023-04-08T11:18:49.711Z,81.04
2023-04-08T11:21:37.893Z,78.44
2023-04-08T11:24:26.101Z,76.42
2023-04-08T11:27:16.079Z,79.10
2023-04-08T11:30:05.921Z,78.95
2023-04-08T11:32:54.575Z,80.42
2023-04-08T11:35:43.169Z,79.88
2023-04-08T11:38:31.062Z,77.76
2023-04-08T11:41:18.744Z,78.38
2023-04-08T11:44:09.620Z,78.05
2023-04-08T11:46:57.517Z,80.34
2023-04-08T11:49:46.713Z,78.21
2023-04-08T11:52:48.665Z,77.46
2023-04-08T11:55:36.561Z,77.60
2023-04-08T11:58:24.303Z,77.42
2023-04-08T12:01:12.425Z,77.54
2023-04-08T12:04:02.593Z,78.94
2023-04-08T12:06:50.636Z,80.24
2023-04-08T12:09:38.186Z,80.73
2023-04-08T12:12:26.028Z,79.64
2023-04-08T12:15:13.730Z,80.93
2023-04-08T12:18:01.751Z,78.83
2023-04-08T12:20:49.404Z,79.88
2023-04-08T12:23:37.238Z,76.86
2023-04-08T12:26:24.850Z,78.76
2023-04-08T12:29:12.760Z,76.51
2023-04-08T12:32:00.607Z,76.63
2023-04-08T12:34:50.638Z,76.90
2023-04-08T12:37:38.313Z,75.36
2023-04-08T12:40:26.327Z,76.05
2023-04-08T12:43:13.986Z,72.16
2023-04-08T12:46:02.337Z,72.40
2023-04-08T12:48:59.937Z,76.17
2023-04-08T12:51:51.737Z,74.64
2023-04-08T12:54:39.454Z,75.74
2023-04-08T12:57:28.642Z,74.51
2023-04-08T13:00:16.319Z,71.60
2023-04-08T13:03:05.127Z,72.67
2023-04-08T13:05:52.855Z,72.78
2023-04-08T13:08:40.634Z,73.56
2023-04-08T13:11:28.392Z,73.06
2023-04-08T13:14:16.738Z,73.04
2023-04-08T13:17:05.120Z,73.57
2023-04-08T13:19:52.930Z,68.04
2023-04-08T13:22:41.670Z,68.74
2023-04-08T13:25:29.429Z,68.74
2023-04-08T13:28:17.149Z,68.73
2023-04-08T13:31:04.923Z,66.97
2023-04-08T13:33:54.555Z,69.03
2023-04-08T13:36:43.900Z,70.93
2023-04-08T13:39:31.969Z,70.64
2023-04-08T13:42:19.768Z,71.44
2023-04-08T13:45:08.057Z,71.34
2023-04-08T13:47:57.083Z,72.27
2023-04-08T13:50:44.869Z,71.52
2023-04-08T13:53:32.674Z,72.58
2023-04-08T13:56:21.204Z,72.66
2023-04-08T13:59:10.601Z,71.30
2023-04-08T14:01:58.507Z,72.64
2023-04-08T14:04:46.983Z,71.34
2023-04-08T14:07:34.634Z,72.54
2023-04-08T14:10:22.566Z,72.94
2023-04-08T14:13:10.150Z,73.50
2023-04-08T14:15:59.092Z,74.70
2023-04-08T14:18:46.845Z,75.85
2023-04-08T14:21:34.652Z,76.91
2023-04-08T14:24:22.385Z,77.50
2023-04-08T14:27:11.055Z,78.85
2023-04-08T14:29:58.668Z,80.09
2023-04-08T14:32:46.875Z,81.21
2023-04-08T14:35:34.585Z,81.18
2023-04-08T14:38:23.320Z,81.90
2023-04-08T14:41:11.060Z,82.08
2023-04-08T14:43:58.837Z,82.31
2023-04-08T14:46:46.616Z,82.33
2023-04-08T14:49:34.522Z,82.32
2023-04-08T14:52:23.432Z,82.51
2023-04-08T14:55:14.870Z,83.64
2023-04-08T14:58:02.896Z,84.81
2023-04-08T15:00:50.888Z,85.17
2023-04-08T15:03:38.694Z,85.78
2023-04-08T15:06:27.206Z,89.41
2023-04-08T15:09:15.149Z,88.41
2023-04-08T15:12:03.012Z,90.00
2023-04-08T15:14:51.183Z,88.87
2023-04-08T15:17:39.064Z,90.90
2023-04-08T15:20:26.924Z,91.02
2023-04-08T15:23:14.687Z,91.87
2023-04-08T15:26:02.486Z,92.27
2023-04-08T15:28:50.703Z,93.49
2023-04-08T15:31:38.568Z,94.31
2023-04-08T15:34:26.520Z,94.15
2023-04-08T15:37:14.282Z,94.87
2023-04-08T15:40:02.090Z,96.88
2023-04-08T15:42:56.671Z,98.86
2023-04-08T15:45:44.914Z,99.50
2023-04-08T15:48:32.952Z,100.00
2023-04-08T15:51:21.299Z,100.00
2023-04-08T15:54:09.143Z,100.00
2023-04-08T15:56:57.985Z,100.00
2023-04-08T15:59:45.746Z,100.00
2023-04-08T16:02:33.675Z,100.00
2023-04-08T16:05:21.613Z,100.00
2023-04-08T16:08:09.742Z,100.00
2023-04-08T16:11:02.792Z,100.00
2023-04-08T16:13:50.712Z,100.00
2023-04-08T16:16:38.865Z,100.00
2023-04-08T16:19:26.998Z,100.00
2023-04-08T16:22:17.024Z,100.00
2023-04-08T16:25:05.200Z,100.00
2023-04-08T16:27:53.066Z,100.00
2023-04-08T16:30:44.143Z,100.00
2023-04-08T16:33:32.316Z,100.00
2023-04-08T16:36:24.875Z,100.00
2023-04-08T16:39:17.766Z,100.00
2023-04-08T16:42:05.560Z,100.00
2023-04-08T16:44:57.522Z,100.00
2023-04-08T16:47:46.395Z,100.00
2023-04-08T16:50:34.036Z,100.00
2023-04-08T16:53:21.971Z,100.00
2023-04-08T16:56:14.665Z,100.00
2023-04-08T16:59:02.379Z,100.00
2023-04-08T17:01:50.084Z,100.00
2023-04-08T17:04:38.128Z,100.00
2023-04-08T17:07:28.359Z,100.00
2023-04-08T17:10:16.360Z,100.00
2023-04-08T17:13:05.503Z,100.00
2023-04-08T17:15:53.401Z,100.00
2023-04-08T17:18:41.376Z,100.00
2023-04-08T17:21:29.212Z,100.00
2023-04-08T17:24:16.956Z,100.00
2023-04-08T17:27:05.740Z,100.00
2023-04-08T17:29:57.886Z,100.00
2023-04-08T17:32:45.515Z,100.00
2023-04-08T17:35:33.187Z,100.00
2023-04-08T17:38:21.136Z,100.00
2023-04-08T17:41:09.113Z,100.00
2023-04-08T17:43:57.589Z,100.00
2023-04-08T17:46:45.292Z,100.00
2023-04-08T17:49:32.978Z,100.00
2023-04-08T17:52:20.609Z,100.00
2023-04-08T17:55:08.767Z,100.00
2023-04-08T17:57:56.458Z,100.00
2023-04-08T18:00:44.185Z,100.00
2023-04-08T18:03:31.978Z,100.00
2023-04-08T18:06:20.070Z,100.00
2023-04-08T18:09:07.741Z,100.00
2023-04-08T18:11:55.726Z,100.00
2023-04-08T18:14:43.434Z,100.00
2023-04-08T18:17:31.370Z,100.00
2023-04-08T18:20:19.170Z,100.00
2023-04-08T18:23:06.920Z,100.00
2023-04-08T18:25:54.707Z,100.00
2023-04-08T18:28:42.596Z,100.00
2023-04-08T18:31:30.267Z,100.00
2023-04-08T18:34:21.141Z,100.00
2023-04-08T18:37:11.084Z,100.00
2023-04-08T18:40:02.669Z,100.00
2023-04-08T18:42:50.593Z,100.00
2023-04-08T18:45:38.395Z,100.00
2023-04-08T18:48:26.683Z,100.00
2023-04-08T18:51:14.549Z,100.00
2023-04-08T18:54:02.226Z,100.00
2023-04-08T18:56:50.986Z,100.00
2023-04-08T18:59:38.678Z,100.00
2023-04-08T19:02:29.080Z,100.00
2023-04-08T19:05:17.147Z,100.00
2023-04-08T19:08:05.654Z,100.00
2023-04-08T19:10:58.887Z,100.00
2023-04-08T19:13:50.082Z,100.00
2023-04-08T19:16:40.034Z,100.00
2023-04-08T19:19:29.454Z,100.00
2023-04-08T19:22:17.347Z,100.00
2023-04-08T19:25:05.557Z,100.00
2023-04-08T19:27:53.359Z,100.00
2023-04-08T19:30:41.679Z,100.00
2023-04-08T19:33:31.913Z,100.00
2023-04-08T19:36:22.327Z,100.00
2023-04-08T19:39:10.019Z,100.00
2023-04-08T19:41:57.785Z,100.00
2023-04-08T19:44:47.676Z,100.00
2023-04-08T19:47:35.947Z,100.00
2023-04-08T19:50:23.766Z,100.00
2023-04-08T19:53:11.542Z,100.00
2023-04-08T19:56:00.971Z,100.00
2023-04-08T19:58:48.981Z,100.00
2023-04-08T20:01:38.390Z,100.00
2023-04-08T20:04:26.444Z,100.00
2023-04-08T20:07:14.206Z,100.00
2023-04-08T20:10:02.176Z,100.00
2023-04-08T20:12:50.010Z,100.00
2023-04-08T20:15:37.965Z,100.00
2023-04-08T20:18:25.744Z,100.00
2023-04-08T20:21:14.409Z,100.00
2023-04-08T20:24:02.523Z,100.00
2023-04-08T20:26:50.481Z,100.00
2023-04-08T20:29:38.290Z,100.00
2023-04-08T20:32:26.193Z,100.00
2023-04-08T20:35:13.934Z,100.00
2023-04-08T20:38:01.930Z,100.00
2023-04-08T20:40:49.737Z,100.00
2023-04-08T20:43:37.568Z,100.00
2023-04-08T20:46:38.773Z,100.00
2023-04-08T20:49:26.931Z,100.00
2023-04-08T20:52:14.667Z,100.00
2023-04-08T20:55:02.527Z,100.00
2023-04-08T20:57:50.166Z,100.00
2023-04-08T21:00:37.971Z,100.00
2023-04-08T21:03:26.960Z,100.00
2023-04-08T21:06:19.287Z,100.00
2023-04-08T21:09:06.808Z,100.00
2023-04-08T21:11:54.640Z,100.00
2023-04-08T21:14:42.332Z,100.00
2023-04-08T21:17:31.451Z,100.00
2023-04-08T21:20:19.525Z,100.00
2023-04-08T21:23:07.762Z,100.00
2023-04-08T21:25:55.502Z,100.00
2023-04-08T21:28:44.307Z,100.00
2023-04-08T21:31:32.016Z,100.00
2023-04-08T21:34:19.750Z,100.00
2023-04-08T21:37:07.457Z,100.00
2023-04-08T21:39:55.251Z,100.00
2023-04-08T21:42:43.140Z,100.00
2023-04-08T21:45:30.863Z,100.00
2023-04-08T21:48:18.557Z,100.00
2023-04-08T21:51:07.346Z,100.00
2023-04-08T21:53:54.986Z,100.00
2023-04-08T21:56:43.732Z,100.00
2023-04-08T21:59:31.376Z,100.00
2023-04-08T22:02:19.191Z,100.00
2023-04-08T22:05:08.891Z,100.00
2023-04-08T22:07:56.600Z,100.00
2023-04-08T22:10:44.341Z,100.00
2023-04-08T22:13:32.270Z,100.00
2023-04-08T22:16:19.998Z,100.00
2023-04-08T22:19:07.750Z,100.00
2023-04-08T22:21:55.512Z,100.00
2023-04-08T22:24:43.284Z,100.00
2023-04-08T22:27:32.169Z,100.00
2023-04-08T22:30:21.660Z,100.00
2023-04-08T22:33:09.314Z,100.00
2023-04-08T22:35:58.030Z,100.00
2023-04-08T22:38:46.686Z,100.00
2023-04-08T22:41:34.377Z,100.00
2023-04-08T22:44:22.151Z,100.00
2023-04-08T22:47:09.995Z,100.00
2023-04-08T22:49:57.616Z,100.00
2023-04-08T22:52:45.246Z,100.00
2023-04-08T22:55:32.898Z,100.00
2023-04-08T22:58:20.674Z,100.00
2023-04-08T23:01:25.720Z,100.00
2023-04-08T23:04:13.537Z,100.00
2023-04-08T23:07:01.360Z,100.00
2023-04-08T23:09:49.162Z,100.00
2023-04-08T23:12:36.822Z,100.00
2023-04-08T23:15:24.686Z,100.00
2023-04-08T23:18:12.398Z,100.00
2023-04-08T23:21:00.276Z,100.00
2023-04-08T23:23:47.933Z,100.00
2023-04-08T23:26:35.730Z,100.00
2023-04-08T23:29:23.407Z,100.00
2023-04-08T23:32:11.246Z,100.00
2023-04-08T23:34:59.545Z,100.00
2023-04-08T23:37:47.289Z,100.00
2023-04-08T23:40:34.961Z,100.00
2023-04-08T23:43:22.717Z,100.00
2023-04-08T23:46:10.433Z,100.00
2023-04-08T23:48:58.305Z,100.00
2023-04-08T23:51:46.031Z,100.00
2023-04-08T23:54:34.172Z,100.00
2023-04-08T23:57:21.887Z,100.00
